FPST Airport Information

Runway Information
Runway 11 Length 7283 ft width 148 ft Elevation 39 ft Threshold 200 ft Heading 103
Runway 29 Length 7283 ft Width 148 ft Elevation 16 ft Threshold 200 ft Heading 283
Airport Frequencies
Type TWR Name TWR Frequency 118.9 MHZ
Airport Navaids
Type NDB Name Sao Tome Frequency 330 KHZ
Type VOR-DME Name Sao Tome Frequency 117300 KHZ
Airport Weather Information & NOTAM
ADDS - METARS form results

(1720 UTC 05 February 2023)
Data provider http://aviationweather.gov/metar/data/
 
METAR text: FPST 051700Z 14003KT 9999 FEW025 SCT100 26/22 Q1010 NOSIG
Conditions at: FPST (SAO TOME IL/SALA, ST) observed 1700 UTC 05 February 2023
Temperature: 26.0°C (79°F)
Dewpoint: 22.0°C (72°F) [RH = 79%]
Pressure (altimeter): 29.82 inches Hg (1010.0 mb)
Winds: from the SE (140 degrees) at 3 MPH (3 knots; 1.5 m/s)
Visibility: 6 or more miles (10+ km)
Ceiling: at least 12,000 feet AGL
Clouds: few clouds at 2500 feet AGL
scattered clouds at 10000 feet AGL
Weather: no significant weather observed at this time